Time;durP1;ratioP1;P1;durP2;ratioP2;P2;SDS_P1;SDS_P2;PMS_P1;PMS_P2;Temp;Humidity;BMP_temperature;BMP_pressure;BME280_temperature;BME280_humidity;BME280_pressure;Samples;Min_cycle;Max_cycle;Signal;HPM_P1;HPM_P2
2023/04/14 00:01:29;;;;;;;9.50;2.20;;;5.90;99.90;;;;;;5070239;28;20088;-84
2023/04/14 00:03:56;;;;;;;6.78;1.55;;;5.90;99.90;;;;;;5058523;28;20053;-84
2023/04/14 00:06:21;;;;;;;7.70;2.00;;;5.90;99.90;;;;;;5070884;28;20437;-84
2023/04/14 00:08:47;;;;;;;7.38;1.83;;;5.90;99.90;;;;;;5066597;28;20163;-83
2023/04/14 00:11:13;;;;;;;8.35;2.25;;;5.90;99.90;;;;;;5071971;28;20222;-83
2023/04/14 00:13:38;;;;;;;7.97;2.20;;;6.20;99.90;;;;;;5095047;28;20674;-84
2023/04/14 00:16:05;;;;;;;10.70;2.88;;;5.90;99.90;;;;;;5090889;28;20052;-83
2023/04/14 00:18:31;;;;;;;8.05;2.00;;;5.80;99.90;;;;;;5061291;28;20051;-83
2023/04/14 00:20:57;;;;;;;8.77;2.20;;;5.90;99.90;;;;;;5087946;28;20043;-83
2023/04/14 00:23:23;;;;;;;10.02;1.98;;;5.90;99.90;;;;;;5076989;28;20046;-84
2023/04/14 00:25:49;;;;;;;8.40;1.83;;;5.80;99.90;;;;;;5084674;28;20101;-84
2023/04/14 00:28:15;;;;;;;5.60;1.77;;;5.90;99.90;;;;;;5079014;28;20069;-83
2023/04/14 00:30:41;;;;;;;11.80;2.22;;;5.80;99.90;;;;;;5068560;28;20039;-83
2023/04/14 00:33:06;;;;;;;9.55;2.05;;;5.80;99.90;;;;;;5089172;28;20087;-83
2023/04/14 00:35:32;;;;;;;9.30;2.70;;;5.80;99.90;;;;;;5089683;28;20031;-84
2023/04/14 00:37:58;;;;;;;7.82;2.05;;;5.80;99.90;;;;;;5091047;28;20056;-84
2023/04/14 00:40:24;;;;;;;4.97;2.10;;;5.70;99.90;;;;;;5084014;28;20676;-84
2023/04/14 00:42:49;;;;;;;9.52;2.38;;;5.70;99.90;;;;;;5098985;28;20613;-84
2023/04/14 00:45:15;;;;;;;5.32;1.80;;;5.70;99.90;;;;;;5077360;28;20092;-83
2023/04/14 00:47:49;;;;;;;7.78;1.92;;;5.70;99.90;;;;;;5090353;28;20649;-83
2023/04/14 00:50:17;;;;;;;6.07;1.80;;;5.70;99.90;;;;;;5080690;28;20078;-84
2023/04/14 00:52:46;;;;;;;6.70;1.90;;;5.70;99.90;;;;;;5091007;28;20330;-83
2023/04/14 00:55:12;;;;;;;7.55;2.20;;;6.30;99.90;;;;;;5089206;28;20044;-84
2023/04/14 00:57:38;;;;;;;8.68;2.28;;;5.70;99.90;;;;;;5072268;28;20040;-83
2023/04/14 01:00:05;;;;;;;6.45;2.28;;;5.70;99.90;;;;;;5096517;27;20035;-83
2023/04/14 01:02:31;;;;;;;8.38;1.77;;;5.60;99.90;;;;;;5080720;28;20048;-83
2023/04/14 01:04:57;;;;;;;5.13;1.85;;;5.60;99.90;;;;;;5071203;28;20052;-83
2023/04/14 01:07:24;;;;;;;9.27;1.65;;;5.50;99.90;;;;;;5068805;28;20043;-83
2023/04/14 01:09:51;;;;;;;6.22;1.73;;;5.50;99.90;;;;;;5088184;28;20498;-83
2023/04/14 01:12:20;;;;;;;10.73;2.35;;;5.50;99.90;;;;;;5058902;28;20052;-83
2023/04/14 01:15:01;;;;;;;7.03;2.65;;;5.50;99.90;;;;;;5079993;28;20148;-83
2023/04/14 01:17:35;;;;;;;8.65;2.08;;;5.50;99.90;;;;;;5086713;28;20043;-83
2023/04/14 01:20:19;;;;;;;6.03;1.73;;;5.50;99.90;;;;;;5087094;28;20108;-83
2023/04/14 01:22:58;;;;;;;7.18;1.80;;;5.50;99.90;;;;;;5074663;27;20055;-83
2023/04/14 01:26:18;;;;;;;7.65;2.55;;;5.50;99.90;;;;;;5087136;28;20051;-83
2023/04/14 01:29:14;;;;;;;9.02;1.88;;;5.40;99.90;;;;;;5082858;28;20052;-83
2023/04/14 01:31:47;;;;;;;10.10;2.00;;;5.40;99.90;;;;;;5073465;28;20043;-83
2023/04/14 01:34:22;;;;;;;6.07;1.88;;;5.40;99.90;;;;;;5088232;28;20055;-83
2023/04/14 01:37:01;;;;;;;4.95;1.63;;;5.30;99.90;;;;;;5071798;28;20064;-83
2023/04/14 01:39:33;;;;;;;6.78;2.00;;;5.30;99.90;;;;;;5092826;28;20039;-83
2023/04/14 01:42:00;;;;;;;7.28;2.10;;;5.30;99.90;;;;;;5096023;28;20043;-83
2023/04/14 01:44:29;;;;;;;5.72;2.05;;;5.30;99.90;;;;;;5086588;28;20157;-83
2023/04/14 01:47:02;;;;;;;7.68;2.15;;;5.30;99.90;;;;;;5073404;28;20048;-83
2023/04/14 01:49:31;;;;;;;7.70;2.20;;;5.20;99.90;;;;;;5097566;28;20054;-83
2023/04/14 01:51:58;;;;;;;7.43;1.85;;;5.20;99.90;;;;;;5069836;28;20490;-83
2023/04/14 01:54:25;;;;;;;11.88;2.17;;;5.20;99.90;;;;;;5052157;28;20090;-83
2023/04/14 01:56:52;;;;;;;6.38;1.83;;;5.20;99.90;;;;;;5089801;28;20534;-83
2023/04/14 01:59:21;;;;;;;7.03;1.65;;;5.20;99.90;;;;;;5069518;28;20039;-83
2023/04/14 02:01:49;;;;;;;7.75;2.15;;;5.20;99.90;;;;;;5099555;28;20032;-84
2023/04/14 02:04:20;;;;;;;8.90;3.15;;;5.30;99.90;;;;;;5073517;28;20530;-83
2023/04/14 02:06:47;;;;;;;5.35;1.85;;;5.30;99.90;;;;;;5080312;28;20046;-83
2023/04/14 02:09:14;;;;;;;6.38;2.15;;;5.30;99.90;;;;;;5094982;28;20035;-83
2023/04/14 02:11:42;;;;;;;5.20;1.90;;;5.30;99.90;;;;;;5068763;28;20035;-83
2023/04/14 02:14:09;;;;;;;6.30;2.65;;;5.30;99.90;;;;;;5074026;28;20452;-83
2023/04/14 02:16:36;;;;;;;6.00;1.98;;;5.30;99.90;;;;;;5086872;28;20607;-83
2023/04/14 02:19:05;;;;;;;5.93;1.77;;;5.30;99.90;;;;;;5093859;28;20050;-83
2023/04/14 02:21:33;;;;;;;8.90;1.88;;;5.30;99.90;;;;;;5086306;28;20031;-83
2023/04/14 02:23:59;;;;;;;7.05;1.85;;;5.30;99.90;;;;;;5072835;28;20044;-83
2023/04/14 02:26:29;;;;;;;10.60;2.33;;;5.40;99.90;;;;;;5051231;28;20079;-83
2023/04/14 02:29:11;;;;;;;5.70;2.40;;;5.40;99.90;;;;;;5086950;28;20043;-83
2023/04/14 02:31:43;;;;;;;8.57;1.85;;;5.40;99.90;;;;;;5086327;28;20123;-83
2023/04/14 02:34:11;;;;;;;5.00;2.20;;;5.40;99.90;;;;;;5073839;28;20097;-82
2023/04/14 02:37:00;;;;;;;6.22;1.77;;;5.40;99.90;;;;;;5067172;28;20184;-82
2023/04/14 02:39:42;;;;;;;5.57;1.65;;;5.40;99.90;;;;;;5092717;28;20044;-83
2023/04/14 02:42:15;;;;;;;8.82;2.10;;;5.40;99.90;;;;;;5096090;28;20627;-83
2023/04/14 02:44:59;;;;;;;7.47;1.85;;;5.40;99.90;;;;;;5068187;28;20098;-83
2023/04/14 02:47:29;;;;;;;6.28;1.98;;;5.40;99.90;;;;;;5067879;28;20051;-83
2023/04/14 02:49:57;;;;;;;5.70;1.50;;;5.50;99.90;;;;;;5077559;28;20059;-83
2023/04/14 02:52:28;;;;;;;5.85;1.98;;;5.40;99.90;;;;;;5074161;28;20086;-83
2023/04/14 02:54:55;;;;;;;8.20;2.05;;;5.30;99.90;;;;;;5089577;28;20044;-83
2023/04/14 02:57:21;;;;;;;5.57;2.00;;;5.30;99.90;;;;;;5096921;28;20039;-82
2023/04/14 02:59:48;;;;;;;3.47;1.45;;;5.30;99.90;;;;;;5094634;28;20044;-83
2023/04/14 03:02:15;;;;;;;5.00;1.33;;;5.40;99.90;;;;;;5084342;28;20048;-83
2023/04/14 03:04:41;;;;;;;5.57;1.52;;;5.70;99.90;;;;;;5049475;28;20055;-83
2023/04/14 03:07:08;;;;;;;7.28;1.90;;;5.40;99.90;;;;;;5087510;28;20509;-82
2023/04/14 03:09:35;;;;;;;5.43;1.63;;;5.90;99.90;;;;;;5087176;28;20044;-82
2023/04/14 03:12:02;;;;;;;6.03;1.77;;;5.50;99.90;;;;;;5067235;28;20090;-82
2023/04/14 03:14:29;;;;;;;6.78;1.70;;;5.50;99.90;;;;;;5073875;28;20040;-83
2023/04/14 03:16:56;;;;;;;5.63;1.38;;;5.50;99.90;;;;;;5069736;28;20463;-83
2023/04/14 03:19:22;;;;;;;5.93;1.52;;;5.50;99.90;;;;;;5085188;28;20036;-83
2023/04/14 03:21:49;;;;;;;8.23;1.85;;;5.50;99.90;;;;;;5089934;28;20040;-83
2023/04/14 03:24:23;;;;;;;7.40;1.70;;;5.50;99.90;;;;;;5049313;28;20127;-83
2023/04/14 03:26:56;;;;;;;5.32;1.40;;;5.50;99.90;;;;;;5091220;28;20071;-83
2023/04/14 03:29:25;;;;;;;6.32;1.58;;;5.50;99.90;;;;;;5072343;28;20051;-83
2023/04/14 03:31:54;;;;;;;6.35;1.63;;;5.60;99.90;;;;;;5054551;28;20056;-83
2023/04/14 03:34:23;;;;;;;6.47;2.13;;;5.50;99.90;;;;;;5068558;28;20128;-83
2023/04/14 03:36:51;;;;;;;5.32;1.20;;;5.50;99.90;;;;;;5073902;28;20055;-82
2023/04/14 03:39:19;;;;;;;4.93;1.80;;;5.50;99.90;;;;;;5087340;28;20040;-83
2023/04/14 03:41:48;;;;;;;5.30;1.67;;;5.50;99.90;;;;;;5076173;28;20046;-84
2023/04/14 03:44:17;;;;;;;4.95;1.23;;;5.50;99.90;;;;;;5062959;28;20082;-83
2023/04/14 03:46:43;;;;;;;5.22;1.60;;;5.50;99.90;;;;;;5077899;28;20051;-83
2023/04/14 03:49:11;;;;;;;4.10;1.77;;;5.50;99.90;;;;;;5089700;27;20416;-83
2023/04/14 03:51:39;;;;;;;6.10;1.52;;;5.50;99.90;;;;;;5090350;28;20568;-83
2023/04/14 03:54:06;;;;;;;5.50;1.73;;;5.50;99.90;;;;;;5065726;28;20588;-83
2023/04/14 03:56:37;;;;;;;6.03;1.85;;;5.50;99.90;;;;;;5084454;28;20044;-83
2023/04/14 03:59:03;;;;;;;4.22;1.52;;;5.40;99.90;;;;;;5085027;28;20036;-82
2023/04/14 04:01:30;;;;;;;5.65;1.83;;;5.40;99.90;;;;;;5088827;28;20490;-83
2023/04/14 04:03:59;;;;;;;6.43;1.90;;;5.40;99.90;;;;;;5095587;27;20040;-83
2023/04/14 04:06:26;;;;;;;4.70;1.70;;;5.40;99.90;;;;;;5056003;28;20490;-83
2023/04/14 04:08:52;;;;;;;7.10;2.10;;;5.40;99.90;;;;;;5052794;28;20111;-83
2023/04/14 04:11:20;;;;;;;5.72;1.77;;;5.50;99.90;;;;;;5093052;28;20123;-83
2023/04/14 04:13:47;;;;;;;4.75;1.40;;;5.30;99.90;;;;;;5084820;28;20047;-83
2023/04/14 04:16:13;;;;;;;4.55;1.67;;;5.30;99.90;;;;;;5070678;28;20556;-83
2023/04/14 04:18:45;;;;;;;6.90;1.83;;;5.30;99.90;;;;;;5065452;28;20051;-83
2023/04/14 04:21:16;;;;;;;5.70;2.15;;;5.30;99.90;;;;;;5072293;28;20070;-83
2023/04/14 04:23:45;;;;;;;6.47;1.90;;;5.30;99.90;;;;;;5084231;28;20101;-82
2023/04/14 04:26:11;;;;;;;3.67;1.70;;;5.20;99.90;;;;;;5083068;28;20044;-83
2023/04/14 04:28:39;;;;;;;6.03;1.67;;;5.20;99.90;;;;;;5086179;28;20111;-82
2023/04/14 04:31:05;;;;;;;5.85;1.60;;;5.20;99.90;;;;;;5082797;28;20028;-83
2023/04/14 04:33:31;;;;;;;7.35;2.00;;;5.20;99.90;;;;;;5068698;28;20565;-82
2023/04/14 04:35:58;;;;;;;10.02;2.35;;;5.10;99.90;;;;;;5092054;28;20039;-82
2023/04/14 04:38:24;;;;;;;4.63;1.80;;;5.10;99.90;;;;;;5092805;28;20086;-83
2023/04/14 04:40:50;;;;;;;3.17;1.42;;;5.40;99.90;;;;;;5069914;28;20048;-82
2023/04/14 04:43:17;;;;;;;5.28;1.70;;;5.10;99.90;;;;;;5070514;28;20056;-83
2023/04/14 04:46:15;;;;;;;5.13;1.60;;;5.00;99.90;;;;;;5070368;28;20504;-83
2023/04/14 04:48:41;;;;;;;6.22;1.85;;;5.00;99.90;;;;;;5068636;28;20124;-84
2023/04/14 04:51:07;;;;;;;4.78;1.70;;;5.00;99.90;;;;;;5069666;28;20452;-83
2023/04/14 04:53:33;;;;;;;4.93;1.90;;;5.00;99.90;;;;;;5067829;28;20147;-84
2023/04/14 04:55:59;;;;;;;4.93;1.65;;;5.10;99.90;;;;;;5089743;28;20081;-83
2023/04/14 04:58:24;;;;;;;5.63;2.17;;;5.00;99.90;;;;;;5071413;28;20051;-83
2023/04/14 05:00:50;;;;;;;5.68;1.73;;;5.10;99.90;;;;;;5075666;28;20132;-83
2023/04/14 05:03:16;;;;;;;5.20;1.60;;;5.00;99.90;;;;;;5065154;28;20044;-83
2023/04/14 05:05:46;;;;;;;4.47;1.55;;;5.10;99.90;;;;;;5060099;28;20044;-87
2023/04/14 05:08:12;;;;;;;6.55;1.95;;;5.10;99.90;;;;;;5086945;28;20100;-82
2023/04/14 05:10:38;;;;;;;7.65;2.10;;;5.10;99.90;;;;;;5055493;28;20047;-80
2023/04/14 05:13:04;;;;;;;5.07;1.70;;;5.10;99.90;;;;;;5057661;28;20075;-80
2023/04/14 05:15:30;;;;;;;5.35;1.73;;;5.10;99.90;;;;;;5048702;28;20565;-79
2023/04/14 05:17:57;;;;;;;4.80;1.80;;;5.10;99.90;;;;;;5064725;28;20074;-80
2023/04/14 05:20:23;;;;;;;4.90;1.45;;;5.10;99.90;;;;;;5045534;28;20040;-85
2023/04/14 05:22:49;;;;;;;8.50;1.92;;;5.10;99.90;;;;;;5054819;28;20452;-83
2023/04/14 05:25:18;;;;;;;7.35;2.05;;;5.00;99.90;;;;;;5054775;28;20099;-87
2023/04/14 05:27:43;;;;;;;7.88;2.30;;;5.10;99.90;;;;;;5084349;28;20044;-83
2023/04/14 05:30:10;;;;;;;7.68;2.28;;;5.10;99.90;;;;;;5085858;28;20069;-84
2023/04/14 05:32:35;;;;;;;5.10;1.95;;;5.00;99.90;;;;;;5069104;28;20044;-84
2023/04/14 05:35:01;;;;;;;6.30;1.90;;;5.00;99.90;;;;;;5084539;28;20043;-84
2023/04/14 05:37:28;;;;;;;7.68;2.25;;;5.00;99.90;;;;;;5062295;28;20797;-83
2023/04/14 05:39:54;;;;;;;8.13;2.10;;;5.00;99.90;;;;;;5082587;28;20498;-83
2023/04/14 05:42:20;;;;;;;7.18;2.72;;;5.00;99.90;;;;;;5063274;28;20040;-84
2023/04/14 05:44:46;;;;;;;6.20;2.70;;;5.00;99.90;;;;;;5076444;28;20074;-84
2023/04/14 05:47:11;;;;;;;6.63;2.20;;;5.00;99.90;;;;;;5091256;28;20051;-84
2023/04/14 05:49:37;;;;;;;6.63;1.73;;;5.00;99.90;;;;;;5089817;27;20047;-89
2023/04/14 05:52:03;;;;;;;7.07;2.60;;;5.00;99.90;;;;;;5089868;28;20035;-84
2023/04/14 05:54:29;;;;;;;6.45;2.10;;;5.00;99.90;;;;;;5074403;28;20040;-85
2023/04/14 05:56:56;;;;;;;6.18;2.22;;;5.00;99.90;;;;;;5055078;28;20035;-84
2023/04/14 05:59:22;;;;;;;6.47;2.70;;;5.00;99.90;;;;;;5091094;28;20481;-82
2023/04/14 06:01:48;;;;;;;6.10;1.98;;;5.00;99.90;;;;;;5088368;28;20039;-83
2023/04/14 06:04:14;;;;;;;5.35;2.60;;;4.90;99.90;;;;;;5066037;28;20047;-88
2023/04/14 06:06:40;;;;;;;7.53;2.60;;;5.00;99.90;;;;;;5070945;28;20573;-88
2023/04/14 06:09:06;;;;;;;8.15;2.88;;;4.90;99.90;;;;;;5089663;28;20072;-87
2023/04/14 06:11:31;;;;;;;6.00;2.47;;;5.00;99.90;;;;;;5066007;28;20064;-85
2023/04/14 06:13:58;;;;;;;5.55;2.58;;;5.00;99.90;;;;;;5068662;28;20677;-87
2023/04/14 06:16:23;;;;;;;6.30;1.98;;;5.00;99.90;;;;;;5078727;28;20040;-90
2023/04/14 06:18:49;;;;;;;5.20;2.05;;;5.00;99.90;;;;;;5070864;28;20055;-90
2023/04/14 06:21:15;;;;;;;6.55;2.40;;;5.00;99.90;;;;;;5070357;28;20047;-90
2023/04/14 06:23:40;;;;;;;4.30;2.22;;;5.10;99.90;;;;;;5048022;28;20057;-87
2023/04/14 06:26:06;;;;;;;6.85;3.60;;;5.10;99.90;;;;;;5088390;28;20146;-84
2023/04/14 06:28:32;;;;;;;10.25;2.97;;;5.10;99.90;;;;;;5068007;28;20082;-84
2023/04/14 06:30:59;;;;;;;8.02;2.45;;;5.20;99.90;;;;;;5082365;28;20477;-84
2023/04/14 06:33:24;;;;;;;3.97;2.17;;;5.20;99.90;;;;;;5066838;28;20048;-84
2023/04/14 06:35:50;;;;;;;6.53;2.72;;;5.20;99.90;;;;;;5074287;28;20050;-84
2023/04/14 06:38:19;;;;;;;9.48;3.97;;;5.30;99.90;;;;;;5069464;28;20592;-84
2023/04/14 06:40:45;;;;;;;11.50;4.00;;;5.30;99.90;;;;;;5087937;28;20119;-84
2023/04/14 06:43:16;;;;;;;11.13;3.97;;;5.40;99.90;;;;;;5082549;28;20380;-84
2023/04/14 06:45:51;;;;;;;7.43;3.53;;;5.50;99.90;;;;;;5057680;28;20040;-84
2023/04/14 06:48:17;;;;;;;7.22;3.40;;;5.50;99.90;;;;;;5068243;28;20050;-84
2023/04/14 06:50:42;;;;;;;8.20;3.42;;;5.60;99.90;;;;;;5077466;28;20051;-84
2023/04/14 06:53:08;;;;;;;8.52;2.90;;;5.70;99.90;;;;;;5092866;28;20478;-85
2023/04/14 06:55:35;;;;;;;9.45;3.65;;;5.70;99.90;;;;;;5067725;28;20055;-84
2023/04/14 06:58:00;;;;;;;10.30;2.97;;;6.30;99.90;;;;;;5073217;28;20033;-84
2023/04/14 07:00:26;;;;;;;12.75;3.25;;;6.00;99.90;;;;;;5055936;28;20049;-84
2023/04/14 07:02:52;;;;;;;14.77;3.00;;;6.10;99.90;;;;;;5082568;28;20060;-83
2023/04/14 07:05:21;;;;;;;15.32;3.13;;;6.20;99.90;;;;;;5064237;28;20152;-85
2023/04/14 07:07:47;;;;;;;9.88;2.45;;;6.40;99.90;;;;;;5063898;28;20048;-85
2023/04/14 07:10:12;;;;;;;7.88;2.63;;;6.70;99.90;;;;;;5074885;28;20058;-84
2023/04/14 07:12:38;;;;;;;9.93;2.55;;;6.50;99.90;;;;;;5082658;28;20735;-81
2023/04/14 07:15:05;;;;;;;9.70;2.08;;;6.60;99.90;;;;;;5080762;28;20028;-81
2023/04/14 07:17:35;;;;;;;7.28;2.40;;;6.70;99.90;;;;;;5087895;28;20114;-85
2023/04/14 07:20:02;;;;;;;8.10;2.38;;;6.80;99.90;;;;;;5050955;28;20647;-84
2023/04/14 07:22:28;;;;;;;7.95;1.58;;;6.90;99.90;;;;;;5063635;28;20090;-84
2023/04/14 07:24:54;;;;;;;11.18;2.00;;;7.00;99.90;;;;;;5067884;28;20158;-84
2023/04/14 07:27:20;;;;;;;11.60;1.85;;;7.10;99.90;;;;;;5066530;28;20051;-85
2023/04/14 07:29:45;;;;;;;9.77;1.58;;;7.40;99.90;;;;;;5047434;28;20161;-83
2023/04/14 07:32:14;;;;;;;5.55;1.30;;;7.10;99.90;;;;;;5064575;28;20036;-82
2023/04/14 07:34:42;;;;;;;13.13;1.60;;;7.40;99.90;;;;;;5088167;28;20058;-84
2023/04/14 07:37:09;;;;;;;11.32;1.23;;;7.50;99.90;;;;;;5063821;28;20060;-85
2023/04/14 07:39:35;;;;;;;10.88;1.58;;;7.60;99.90;;;;;;5085356;28;20560;-85
2023/04/14 07:42:00;;;;;;;12.93;1.60;;;7.70;99.90;;;;;;5087155;28;20046;-85
2023/04/14 07:44:26;;;;;;;14.68;1.80;;;7.80;99.90;;;;;;5083339;28;20567;-83
2023/04/14 07:46:52;;;;;;;7.68;1.30;;;7.80;99.90;;;;;;5090849;28;20082;-83
2023/04/14 07:49:18;;;;;;;6.65;1.33;;;8.00;99.90;;;;;;5085545;28;20146;-83
2023/04/14 07:51:44;;;;;;;7.20;1.20;;;8.70;99.90;;;;;;5085255;28;20123;-83
2023/04/14 07:54:12;;;;;;;8.27;1.38;;;8.30;99.90;;;;;;5083212;28;20573;-83
2023/04/14 07:56:39;;;;;;;12.85;2.03;;;8.20;99.90;;;;;;5083513;28;20093;-83
2023/04/14 07:59:05;;;;;;;7.68;1.20;;;8.30;99.90;;;;;;5084617;28;20046;-82
2023/04/14 08:01:31;;;;;;;6.32;1.25;;;8.40;99.90;;;;;;5086903;28;20036;-83
2023/04/14 08:03:57;;;;;;;8.40;1.55;;;8.50;99.90;;;;;;5060745;28;20062;-83
2023/04/14 08:06:23;;;;;;;10.85;1.33;;;8.60;99.90;;;;;;5053337;28;20067;-83
2023/04/14 08:08:52;;;;;;;6.38;1.20;;;8.70;99.90;;;;;;5047553;28;20043;-83
2023/04/14 08:11:18;;;;;;;7.82;1.08;;;8.70;99.90;;;;;;5086447;28;20036;-83
2023/04/14 08:13:45;;;;;;;8.90;1.27;;;8.80;99.90;;;;;;5057299;28;20043;-82
2023/04/14 08:16:11;;;;;;;6.90;1.60;;;8.90;99.90;;;;;;5066524;28;20047;-83
2023/04/14 08:18:39;;;;;;;9.00;1.33;;;9.00;99.90;;;;;;5079195;28;20059;-83
2023/04/14 08:21:04;;;;;;;6.80;1.20;;;9.00;99.90;;;;;;5068317;28;20043;-83
2023/04/14 08:23:30;;;;;;;7.88;1.30;;;9.20;99.90;;;;;;5084049;28;20050;-83
2023/04/14 08:25:56;;;;;;;6.50;1.63;;;9.30;99.90;;;;;;5082353;28;20047;-82
2023/04/14 08:28:21;;;;;;;6.28;1.27;;;9.40;99.90;;;;;;5061115;28;20044;-83
2023/04/14 08:30:48;;;;;;;7.93;1.42;;;9.60;99.90;;;;;;5081972;28;20059;-83
2023/04/14 08:33:14;;;;;;;11.98;1.75;;;9.70;99.90;;;;;;5050661;28;20647;-83
2023/04/14 08:35:40;;;;;;;10.13;1.63;;;9.90;99.90;;;;;;5065366;28;20130;-83
2023/04/14 08:38:08;;;;;;;9.38;1.40;;;10.00;99.90;;;;;;5068979;28;20063;-83
2023/04/14 08:40:42;;;;;;;7.10;1.30;;;10.20;99.90;;;;;;5061878;28;20075;-84
2023/04/14 08:43:09;;;;;;;10.82;1.98;;;10.30;99.90;;;;;;5063147;28;20055;-83
2023/04/14 08:45:35;;;;;;;9.35;1.98;;;10.40;99.90;;;;;;5044874;28;20525;-84
2023/04/14 08:48:03;;;;;;;13.50;1.58;;;10.50;99.90;;;;;;5077206;28;20047;-83
2023/04/14 08:50:36;;;;;;;8.88;1.98;;;10.60;99.90;;;;;;5078424;28;20032;-83
2023/04/14 08:53:05;;;;;;;7.72;1.65;;;10.70;99.90;;;;;;5065696;28;20083;-83
2023/04/14 08:55:32;;;;;;;6.80;1.63;;;10.80;99.90;;;;;;5064009;28;20167;-83
2023/04/14 08:58:01;;;;;;;10.82;1.65;;;10.90;99.90;;;;;;5049453;28;20113;-83
2023/04/14 09:00:26;;;;;;;9.48;1.52;;;11.10;99.90;;;;;;5066134;28;20392;-83
2023/04/14 09:02:54;;;;;;;6.57;1.85;;;11.20;99.90;;;;;;5065061;28;20569;-83
2023/04/14 09:05:20;;;;;;;10.73;1.67;;;11.30;99.90;;;;;;5060198;28;20040;-84
2023/04/14 09:07:46;;;;;;;7.13;1.48;;;11.40;99.90;;;;;;5063979;28;20047;-84
2023/04/14 09:10:12;;;;;;;7.43;1.50;;;11.50;99.90;;;;;;5081129;28;20066;-83
2023/04/14 09:12:39;;;;;;;7.68;1.75;;;11.60;99.90;;;;;;5065269;28;20044;-83
2023/04/14 09:15:05;;;;;;;8.45;1.63;;;11.70;99.90;;;;;;5060105;28;20518;-83
2023/04/14 09:17:32;;;;;;;7.50;1.88;;;11.70;99.90;;;;;;5067832;28;20140;-83
2023/04/14 09:19:58;;;;;;;9.45;1.52;;;11.80;99.90;;;;;;5067430;28;20567;-83
2023/04/14 09:22:25;;;;;;;7.53;1.58;;;11.90;99.90;;;;;;5092906;28;20067;-83
2023/04/14 09:24:51;;;;;;;11.57;2.00;;;12.00;99.90;;;;;;5057279;28;20570;-83
2023/04/14 09:27:17;;;;;;;9.15;1.50;;;12.10;99.90;;;;;;5050586;28;20055;-83
2023/04/14 09:29:43;;;;;;;13.63;2.30;;;12.20;99.90;;;;;;5071499;28;21014;-83
2023/04/14 09:32:11;;;;;;;10.18;2.17;;;12.30;99.90;;;;;;5089712;28;20074;-83
2023/04/14 09:34:53;;;;;;;12.27;2.63;;;12.40;99.90;;;;;;5047166;28;20485;-83
2023/04/14 09:37:20;;;;;;;10.57;1.60;;;12.50;99.90;;;;;;5046501;28;20048;-83
2023/04/14 09:39:49;;;;;;;9.30;2.05;;;13.00;99.90;;;;;;5037377;28;20810;-83
2023/04/14 09:42:16;;;;;;;8.77;2.05;;;12.70;99.90;;;;;;5050224;28;20487;-83
2023/04/14 09:44:55;;;;;;;10.07;1.83;;;12.90;99.90;;;;;;5049977;28;20059;-81
2023/04/14 09:47:23;;;;;;;8.15;2.20;;;12.90;99.90;;;;;;5047291;28;20194;-83
2023/04/14 09:50:15;;;;;;;8.80;2.10;;;13.00;99.90;;;;;;5046932;28;20458;-82
2023/04/14 09:52:46;;;;;;;8.85;2.33;;;13.00;99.90;;;;;;5028733;28;20080;-83
2023/04/14 09:55:14;;;;;;;10.27;2.28;;;13.10;99.90;;;;;;5027758;28;20042;-82
2023/04/14 09:57:41;;;;;;;10.32;1.88;;;13.20;99.90;;;;;;5041566;28;20041;-83
2023/04/14 10:00:20;;;;;;;8.23;1.70;;;13.50;99.90;;;;;;5060484;28;20063;-83
2023/04/14 10:02:57;;;;;;;7.70;1.40;;;13.20;99.90;;;;;;5046166;28;20125;-83
2023/04/14 10:05:32;;;;;;;8.35;1.45;;;13.40;99.90;;;;;;5056986;28;20757;-83
2023/04/14 10:08:04;;;;;;;6.60;1.52;;;13.50;99.90;;;;;;5065376;28;20035;-83
2023/04/14 10:10:31;;;;;;;5.70;1.52;;;13.60;99.90;;;;;;5048448;28;20046;-84
2023/04/14 10:12:59;;;;;;;10.95;1.77;;;13.60;99.90;;;;;;5066440;28;20105;-88
2023/04/14 10:15:26;;;;;;;8.73;1.70;;;13.60;99.90;;;;;;5068514;28;20072;-87
2023/04/14 10:17:51;;;;;;;10.38;1.48;;;13.50;99.90;;;;;;5034761;28;20055;-87
2023/04/14 10:20:18;;;;;;;9.57;2.10;;;13.60;99.90;;;;;;5067796;28;20040;-88
2023/04/14 10:22:44;;;;;;;9.60;1.95;;;13.70;99.90;;;;;;5052963;28;20044;-87
2023/04/14 10:25:13;;;;;;;7.25;1.92;;;13.80;99.90;;;;;;5066002;28;20551;-87
2023/04/14 10:27:42;;;;;;;6.68;1.77;;;14.00;99.90;;;;;;5035139;28;20044;-87
2023/04/14 10:30:11;;;;;;;7.45;1.95;;;14.10;99.90;;;;;;5052024;28;20048;-88
2023/04/14 10:32:39;;;;;;;7.22;2.05;;;14.20;99.90;;;;;;5065855;28;20536;-87
2023/04/14 10:35:13;;;;;;;7.25;2.40;;;14.30;99.90;;;;;;5063098;28;20499;-87
2023/04/14 10:37:50;;;;;;;6.78;1.50;;;14.40;99.90;;;;;;5079406;28;20044;-88
2023/04/14 10:40:17;;;;;;;6.22;1.67;;;14.50;99.90;;;;;;5066112;28;20043;-89
2023/04/14 10:42:54;;;;;;;6.63;1.65;;;14.60;99.90;;;;;;5070677;28;20074;-88
2023/04/14 10:45:23;;;;;;;7.00;2.25;;;14.70;99.90;;;;;;5051600;28;20105;-89
2023/04/14 10:47:49;;;;;;;9.00;2.00;;;14.80;99.90;;;;;;5074555;28;20044;-88
2023/04/14 10:50:16;;;;;;;10.18;2.53;;;14.90;99.90;;;;;;5089213;28;20051;-86
2023/04/14 10:52:53;;;;;;;7.03;2.25;;;15.00;99.90;;;;;;5078016;28;20056;-84
2023/04/14 10:55:22;;;;;;;9.80;2.33;;;15.00;99.90;;;;;;5090236;28;20036;-84
2023/04/14 10:57:48;;;;;;;8.85;2.53;;;15.00;99.90;;;;;;5075920;28;20064;-85
2023/04/14 11:00:22;;;;;;;7.70;2.58;;;15.00;99.90;;;;;;5064765;28;20051;-85
2023/04/14 11:02:56;;;;;;;8.02;2.30;;;15.10;99.90;;;;;;5068070;28;20048;-85
2023/04/14 11:05:23;;;;;;;6.85;2.28;;;15.30;99.90;;;;;;5067383;28;20483;-84
2023/04/14 11:07:57;;;;;;;6.38;1.67;;;15.40;99.90;;;;;;5053177;28;20044;-83
2023/04/14 11:10:25;;;;;;;9.52;2.22;;;15.30;99.90;;;;;;5063583;28;20501;-84
2023/04/14 11:12:55;;;;;;;9.05;1.77;;;15.00;99.90;;;;;;5060772;28;20063;-85
2023/04/14 11:15:20;;;;;;;9.07;1.90;;;14.80;99.90;;;;;;5082100;28;20550;-85
2023/04/14 11:17:46;;;;;;;9.05;1.90;;;14.80;99.90;;;;;;5062026;28;20093;-85
2023/04/14 11:20:24;;;;;;;9.43;2.15;;;15.00;99.90;;;;;;5084297;28;20036;-84
2023/04/14 11:22:51;;;;;;;8.82;2.00;;;15.20;99.90;;;;;;5071507;28;20051;-85
2023/04/14 11:25:19;;;;;;;7.65;1.88;;;15.30;99.90;;;;;;5087894;28;20438;-85
2023/04/14 11:27:47;;;;;;;8.05;1.65;;;15.40;99.90;;;;;;5064810;28;20081;-83
2023/04/14 11:30:15;;;;;;;5.97;1.77;;;15.60;99.90;;;;;;5081286;28;20048;-83
2023/04/14 11:32:49;;;;;;;8.50;1.85;;;15.90;99.90;;;;;;5043484;28;20048;-84
2023/04/14 11:35:17;;;;;;;6.05;1.70;;;16.00;99.90;;;;;;5081910;28;20086;-83
2023/04/14 11:37:44;;;;;;;7.82;1.70;;;16.20;98.50;;;;;;5046918;28;20056;-83
2023/04/14 11:40:11;;;;;;;8.30;1.60;;;16.40;98.90;;;;;;5068098;28;20109;-83
2023/04/14 11:42:42;;;;;;;7.57;1.63;;;16.50;98.50;;;;;;5066485;28;20039;-84
2023/04/14 11:45:09;;;;;;;7.65;1.98;;;16.50;97.40;;;;;;5080047;28;20047;-83
2023/04/14 11:47:35;;;;;;;10.18;2.05;;;16.30;97.10;;;;;;5079436;28;20047;-83
2023/04/14 11:50:03;;;;;;;9.50;2.10;;;16.20;98.10;;;;;;5056382;28;20047;-86
2023/04/14 11:52:32;;;;;;;9.27;2.10;;;16.00;98.60;;;;;;5086780;28;20047;-86
2023/04/14 11:54:59;;;;;;;9.45;2.75;;;15.90;98.90;;;;;;5081103;28;20051;-85
2023/04/14 11:57:25;;;;;;;7.80;1.98;;;15.70;99.30;;;;;;5092405;28;20105;-87
2023/04/14 11:59:51;;;;;;;8.02;2.00;;;15.60;99.30;;;;;;5066665;28;20101;-87
2023/04/14 12:02:20;;;;;;;8.65;1.95;;;15.40;98.90;;;;;;5069833;28;20035;-89
2023/04/14 12:04:49;;;;;;;6.47;1.80;;;15.30;99.00;;;;;;5088499;28;20060;-89
2023/04/14 12:07:17;;;;;;;6.93;1.88;;;15.20;97.90;;;;;;5086641;28;20051;-88
2023/04/14 12:09:45;;;;;;;7.85;1.52;;;15.10;98.70;;;;;;5054590;28;20043;-88
2023/04/14 12:12:13;;;;;;;5.07;1.77;;;15.00;98.90;;;;;;5070632;28;20066;-89
2023/04/14 12:14:47;;;;;;;6.70;1.70;;;14.90;99.20;;;;;;5081004;28;20031;-91
2023/04/14 12:17:16;;;;;;;;;;;14.90;99.70;;;;;;5093162;28;20036;-91
2023/04/14 12:19:43;;;;;;;5.88;1.58;;;14.90;99.90;;;;;;5067565;28;19927;-90
2023/04/14 12:22:10;;;;;;;9.40;2.42;;;14.90;99.90;;;;;;5092220;28;20071;-88
2023/04/14 12:24:41;;;;;;;7.20;1.67;;;14.80;99.90;;;;;;5067290;28;20078;-86
2023/04/14 12:27:08;;;;;;;10.07;1.98;;;14.90;99.90;;;;;;5073661;28;20039;-87
2023/04/14 12:29:37;;;;;;;6.28;1.50;;;15.10;99.20;;;;;;5061990;28;20117;-88
2023/04/14 12:32:13;;;;;;;6.05;1.65;;;15.30;99.00;;;;;;5091053;28;20413;-90
2023/04/14 12:34:39;;;;;;;5.28;1.70;;;15.50;98.40;;;;;;5053800;28;20051;-90
2023/04/14 12:37:07;;;;;;;8.25;1.75;;;15.50;98.40;;;;;;5071189;28;20248;-89
2023/04/14 12:39:51;;;;;;;7.68;2.40;;;15.50;98.30;;;;;;5072992;28;20040;-90
2023/04/14 12:42:20;;;;;;;10.53;1.83;;;15.40;98.50;;;;;;5058275;28;20067;-89
2023/04/14 12:45:02;;;;;;;6.72;1.65;;;15.30;98.10;;;;;;5071196;28;20807;-89
2023/04/14 12:47:36;;;;;;;7.38;2.10;;;15.20;98.00;;;;;;5083261;28;20036;-89
2023/04/14 12:50:27;;;;;;;7.65;1.92;;;15.50;98.10;;;;;;5065328;28;20048;-90
2023/04/14 12:52:54;;;;;;;7.28;1.88;;;15.30;97.00;;;;;;5068301;28;20127;-90
2023/04/14 12:55:26;;;;;;;9.65;2.00;;;15.30;97.30;;;;;;5071683;28;20040;-89
2023/04/14 12:57:58;;;;;;;9.05;1.77;;;15.10;97.30;;;;;;5087528;28;20039;-90
2023/04/14 13:00:30;;;;;;;7.43;1.70;;;15.10;97.50;;;;;;5068347;28;20052;-90